createdAt,value
2023-03-17T00:00:05.475Z,8.88
2023-03-17T00:02:33.255Z,8.87
2023-03-17T00:04:54.878Z,8.86
2023-03-17T00:07:17.641Z,8.87
2023-03-17T00:09:39.210Z,8.86
2023-03-17T00:12:01.105Z,8.87
2023-03-17T00:14:22.944Z,8.86
2023-03-17T00:16:52.546Z,8.87
2023-03-17T00:19:17.810Z,8.87
2023-03-17T00:21:40.136Z,8.87
2023-03-17T00:24:02.120Z,8.89
2023-03-17T00:26:24.932Z,8.89
2023-03-17T00:28:47.509Z,8.90
2023-03-17T00:31:20.940Z,8.87
2023-03-17T00:33:45.252Z,8.81
2023-03-17T00:36:15.732Z,8.74
2023-03-17T00:38:37.538Z,8.65
2023-03-17T00:40:59.267Z,8.58
2023-03-17T00:43:20.910Z,8.52
2023-03-17T00:45:43.231Z,8.49
2023-03-17T00:48:17.303Z,8.46
2023-03-17T00:50:39.284Z,8.47
2023-03-17T00:53:01.309Z,8.45
2023-03-17T00:55:26.666Z,8.47
2023-03-17T00:57:49.959Z,8.46
2023-03-17T01:00:32.894Z,8.46
2023-03-17T01:02:57.259Z,8.43
2023-03-17T01:05:24.951Z,8.42
2023-03-17T01:07:52.887Z,8.39
2023-03-17T01:10:20.378Z,8.38
2023-03-17T01:12:43.066Z,8.36
2023-03-17T01:15:05.806Z,8.35
2023-03-17T01:17:27.759Z,8.33
2023-03-17T01:19:49.470Z,8.31
2023-03-17T01:22:11.738Z,8.31
2023-03-17T01:24:33.672Z,8.31
2023-03-17T01:26:55.287Z,8.29
2023-03-17T01:29:17.555Z,8.27
2023-03-17T01:31:39.414Z,8.26
2023-03-17T01:34:01.135Z,8.25
2023-03-17T01:36:22.822Z,8.24
2023-03-17T01:38:47.973Z,8.24
2023-03-17T01:41:10.458Z,8.23
2023-03-17T01:43:32.524Z,8.22
2023-03-17T01:46:31.972Z,8.21
2023-03-17T01:49:27.912Z,8.19
2023-03-17T01:52:02.115Z,8.17
2023-03-17T01:54:56.663Z,8.15
2023-03-17T01:57:25.413Z,8.12
2023-03-17T01:59:55.422Z,8.11
2023-03-17T02:02:25.702Z,8.12
2023-03-17T02:04:47.767Z,8.10
2023-03-17T02:07:11.260Z,8.09
2023-03-17T02:09:37.153Z,8.08
2023-03-17T02:12:02.645Z,8.07
2023-03-17T02:14:24.424Z,8.06
2023-03-17T02:16:46.496Z,8.05
2023-03-17T02:19:11.411Z,8.03
2023-03-17T02:21:39.028Z,8.02
2023-03-17T02:24:08.370Z,8.02
2023-03-17T02:26:35.298Z,8.00
2023-03-17T02:28:57.445Z,8.01
2023-03-17T02:31:19.912Z,8.00
2023-03-17T02:33:42.501Z,7.97
2023-03-17T02:36:04.815Z,7.96
2023-03-17T02:38:27.051Z,7.98
2023-03-17T02:40:49.000Z,7.98
2023-03-17T02:43:10.904Z,7.99
2023-03-17T02:45:32.529Z,8.03
2023-03-17T02:47:56.035Z,8.04
2023-03-17T02:50:23.217Z,8.05
2023-03-17T02:52:44.855Z,8.07
2023-03-17T02:55:08.320Z,8.11
2023-03-17T02:57:29.882Z,8.15
2023-03-17T02:59:52.273Z,8.15
2023-03-17T03:02:14.343Z,8.18
2023-03-17T03:04:36.034Z,8.19
2023-03-17T03:06:57.705Z,8.18
2023-03-17T03:09:20.823Z,8.17
2023-03-17T03:11:42.931Z,8.15
2023-03-17T03:14:05.553Z,8.15
2023-03-17T03:16:27.367Z,8.15
2023-03-17T03:18:48.959Z,8.15
2023-03-17T03:21:10.898Z,8.16
2023-03-17T03:23:32.670Z,8.14
2023-03-17T03:25:54.405Z,8.14
2023-03-17T03:28:16.148Z,8.14
2023-03-17T03:30:38.754Z,8.17
2023-03-17T03:33:00.679Z,8.16
2023-03-17T03:35:22.323Z,8.18
2023-03-17T03:37:44.047Z,8.19
2023-03-17T03:40:07.498Z,8.19
2023-03-17T03:42:29.148Z,8.19
2023-03-17T03:44:50.757Z,8.18
2023-03-17T03:47:13.992Z,8.20
2023-03-17T03:49:35.777Z,8.20
2023-03-17T03:51:57.500Z,8.19
2023-03-17T03:54:19.273Z,8.18
2023-03-17T03:56:40.963Z,8.17
2023-03-17T03:59:03.501Z,8.14
2023-03-17T04:01:25.189Z,8.13
2023-03-17T04:03:47.385Z,8.15
2023-03-17T04:06:09.107Z,8.12
2023-03-17T04:08:31.826Z,8.10
2023-03-17T04:10:53.464Z,8.06
2023-03-17T04:13:15.409Z,8.02
2023-03-17T04:15:37.524Z,8.00
2023-03-17T04:17:59.209Z,7.98
2023-03-17T04:20:21.165Z,7.94
2023-03-17T04:22:44.119Z,7.89
2023-03-17T04:25:06.502Z,7.84
2023-03-17T04:27:28.384Z,7.78
2023-03-17T04:29:50.078Z,7.74
2023-03-17T04:32:16.075Z,7.69
2023-03-17T04:34:37.702Z,7.65
2023-03-17T04:36:59.498Z,7.65
2023-03-17T04:39:21.584Z,7.65
2023-03-17T04:41:43.190Z,7.63
2023-03-17T04:44:05.956Z,7.63
2023-03-17T04:46:27.630Z,7.61
2023-03-17T04:48:49.309Z,7.59
2023-03-17T04:51:11.957Z,7.60
2023-03-17T04:53:34.969Z,7.57
2023-03-17T04:55:56.661Z,7.56
2023-03-17T04:58:30.114Z,7.58
2023-03-17T05:00:53.110Z,7.59
2023-03-17T05:03:26.308Z,7.56
2023-03-17T05:05:50.686Z,7.56
2023-03-17T05:08:12.747Z,7.55
2023-03-17T05:10:34.338Z,7.54
2023-03-17T05:12:56.131Z,7.55
2023-03-17T05:15:18.184Z,7.58
2023-03-17T05:17:39.822Z,7.61
2023-03-17T05:20:04.941Z,7.61
2023-03-17T05:22:27.138Z,7.61
2023-03-17T05:24:48.933Z,7.63
2023-03-17T05:27:10.711Z,7.64
2023-03-17T05:29:32.322Z,7.64
2023-03-17T05:31:54.721Z,7.65
2023-03-17T05:34:17.425Z,7.67
2023-03-17T05:36:39.032Z,7.64
2023-03-17T05:39:00.843Z,7.65
2023-03-17T05:41:23.061Z,7.64
2023-03-17T05:43:44.764Z,7.66
2023-03-17T05:46:06.707Z,7.67
2023-03-17T05:48:28.354Z,7.68
2023-03-17T05:50:50.153Z,7.70
2023-03-17T05:53:12.720Z,7.70
2023-03-17T05:55:34.430Z,7.68
2023-03-17T05:57:56.231Z,7.67
2023-03-17T06:00:18.876Z,7.66
2023-03-17T06:02:40.637Z,7.67
2023-03-17T06:05:02.462Z,7.68
2023-03-17T06:07:25.057Z,7.67
2023-03-17T06:09:46.714Z,7.68
2023-03-17T06:12:09.410Z,7.70
2023-03-17T06:14:31.072Z,7.73
2023-03-17T06:16:53.277Z,7.73
2023-03-17T06:19:14.978Z,7.74
2023-03-17T06:21:36.964Z,7.73
2023-03-17T06:23:58.504Z,7.71
2023-03-17T06:26:21.512Z,7.70
2023-03-17T06:28:43.124Z,7.69
2023-03-17T06:31:07.227Z,7.69
2023-03-17T06:33:30.012Z,7.67
2023-03-17T06:35:51.796Z,7.69
2023-03-17T06:38:13.612Z,7.70
2023-03-17T06:40:35.579Z,7.75
2023-03-17T06:42:57.443Z,7.82
2023-03-17T06:45:19.121Z,7.91
2023-03-17T06:47:40.933Z,8.09
2023-03-17T06:50:04.810Z,8.24
2023-03-17T06:52:27.637Z,8.29
2023-03-17T06:54:49.322Z,8.32
2023-03-17T06:57:11.122Z,8.35
2023-03-17T06:59:33.371Z,8.42
2023-03-17T07:01:57.738Z,8.51
2023-03-17T07:04:19.752Z,8.60
2023-03-17T07:06:41.702Z,8.65
2023-03-17T07:09:03.858Z,8.69
2023-03-17T07:11:26.294Z,8.76
2023-03-17T07:13:48.005Z,8.81
2023-03-17T07:16:13.953Z,8.86
2023-03-17T07:18:35.653Z,8.93
2023-03-17T07:21:01.770Z,9.03
2023-03-17T07:23:23.655Z,9.11
2023-03-17T07:25:47.175Z,9.21
2023-03-17T07:28:09.482Z,9.30
2023-03-17T07:30:31.900Z,9.39
2023-03-17T07:32:53.948Z,9.47
2023-03-17T07:35:16.176Z,9.56
2023-03-17T07:37:38.357Z,9.67
2023-03-17T07:40:00.000Z,9.73
2023-03-17T07:42:21.826Z,9.81
2023-03-17T07:44:44.623Z,9.90
2023-03-17T07:47:06.414Z,9.97
2023-03-17T07:49:40.777Z,10.06
2023-03-17T07:52:04.398Z,10.16
2023-03-17T07:54:28.980Z,10.23
2023-03-17T07:56:50.767Z,10.28
2023-03-17T07:59:12.381Z,10.34
2023-03-17T08:01:35.466Z,10.42
2023-03-17T08:03:57.268Z,10.50
2023-03-17T08:06:19.286Z,10.57
2023-03-17T08:08:41.225Z,10.62
2023-03-17T08:11:05.465Z,10.69
2023-03-17T08:13:27.027Z,10.77
2023-03-17T08:15:49.963Z,10.83
2023-03-17T08:18:12.734Z,10.88
2023-03-17T08:20:35.567Z,10.92
2023-03-17T08:22:57.685Z,10.98
2023-03-17T08:25:19.359Z,11.01
2023-03-17T08:27:41.963Z,11.07
2023-03-17T08:30:04.511Z,11.13
2023-03-17T08:32:26.378Z,11.21
2023-03-17T08:34:48.498Z,11.29
2023-03-17T08:37:11.571Z,11.36
2023-03-17T08:39:33.831Z,11.45
2023-03-17T08:41:55.778Z,11.51
2023-03-17T08:44:17.428Z,11.59
2023-03-17T08:46:40.291Z,11.69
2023-03-17T08:49:03.246Z,11.81
2023-03-17T08:51:28.815Z,11.89
2023-03-17T08:53:53.931Z,12.02
2023-03-17T08:56:16.934Z,12.10
2023-03-17T08:58:43.145Z,12.20
2023-03-17T09:01:06.844Z,12.31
2023-03-17T09:03:29.364Z,12.41
2023-03-17T09:05:51.463Z,12.45
2023-03-17T09:08:14.334Z,12.50
2023-03-17T09:10:37.055Z,12.59
2023-03-17T09:13:03.038Z,12.62
2023-03-17T09:15:25.772Z,12.70
2023-03-17T09:17:47.451Z,12.81
2023-03-17T09:20:11.513Z,12.90
2023-03-17T09:22:33.528Z,13.02
2023-03-17T09:24:55.239Z,13.11
2023-03-17T09:27:16.915Z,13.21
2023-03-17T09:29:39.202Z,13.33
2023-03-17T09:32:01.581Z,13.45
2023-03-17T09:34:25.107Z,13.55
2023-03-17T09:36:47.855Z,13.64
2023-03-17T09:39:09.511Z,13.78
2023-03-17T09:41:41.485Z,13.90
2023-03-17T09:44:26.183Z,14.09
2023-03-17T09:47:08.546Z,14.26
2023-03-17T09:49:52.313Z,14.45
2023-03-17T09:52:23.135Z,14.58
2023-03-17T09:54:49.517Z,14.67
2023-03-17T09:57:31.430Z,14.73
2023-03-17T10:00:19.344Z,14.78
2023-03-17T10:02:43.252Z,14.81
2023-03-17T10:05:27.614Z,14.86
2023-03-17T10:08:04.391Z,14.87
2023-03-17T10:10:45.570Z,14.92
2023-03-17T10:13:27.873Z,14.97
2023-03-17T10:16:01.032Z,15.02
2023-03-17T10:18:30.367Z,15.16
2023-03-17T10:20:59.529Z,15.33
2023-03-17T10:23:29.854Z,15.43
2023-03-17T10:25:52.871Z,15.46
2023-03-17T10:28:26.107Z,15.48
2023-03-17T10:30:47.773Z,15.43
2023-03-17T10:33:09.805Z,15.38
2023-03-17T10:35:36.140Z,15.40
2023-03-17T10:38:13.512Z,15.45
2023-03-17T10:40:36.456Z,15.53
2023-03-17T10:43:07.926Z,15.68
2023-03-17T10:45:33.480Z,15.85
2023-03-17T10:47:58.169Z,16.04
2023-03-17T10:50:28.677Z,16.24
2023-03-17T10:53:27.860Z,16.40
2023-03-17T10:55:53.203Z,16.45
2023-03-17T10:58:18.177Z,16.52
2023-03-17T11:01:00.077Z,16.60
2023-03-17T11:03:29.902Z,16.65
2023-03-17T11:06:10.131Z,16.77
2023-03-17T11:08:41.630Z,16.94
2023-03-17T11:11:10.751Z,17.13
2023-03-17T11:13:32.975Z,17.22
2023-03-17T11:16:31.978Z,17.28
2023-03-17T11:19:01.664Z,17.45
2023-03-17T11:21:55.485Z,17.66
2023-03-17T11:24:32.152Z,17.85
2023-03-17T11:27:11.232Z,17.88
2023-03-17T11:30:00.915Z,17.80
2023-03-17T11:32:39.335Z,17.72
2023-03-17T11:35:39.731Z,17.70
2023-03-17T11:38:04.271Z,17.78
2023-03-17T11:40:32.446Z,17.86
2023-03-17T11:43:12.640Z,17.87
2023-03-17T11:45:49.533Z,17.86
2023-03-17T11:48:44.851Z,17.83
2023-03-17T11:51:30.361Z,17.91
2023-03-17T11:54:18.219Z,18.04
2023-03-17T11:56:57.629Z,18.18
2023-03-17T12:00:04.086Z,18.36
2023-03-17T12:02:36.792Z,18.59
2023-03-17T12:05:09.825Z,18.69
2023-03-17T12:07:37.531Z,18.77
2023-03-17T12:10:25.633Z,18.91
2023-03-17T12:12:58.898Z,18.96
2023-03-17T12:15:39.817Z,19.03
2023-03-17T12:18:21.712Z,19.00
2023-03-17T12:20:59.062Z,18.94
2023-03-17T12:23:56.966Z,18.89
2023-03-17T12:26:24.305Z,18.92
2023-03-17T12:29:02.750Z,19.04
2023-03-17T12:31:45.415Z,19.18
2023-03-17T12:34:20.423Z,19.27
2023-03-17T12:36:43.974Z,19.36
2023-03-17T12:39:19.335Z,19.41
2023-03-17T12:42:05.524Z,19.43
2023-03-17T12:45:04.627Z,19.50
2023-03-17T12:47:52.095Z,19.58
2023-03-17T12:50:34.343Z,19.63
2023-03-17T12:53:14.477Z,19.57
2023-03-17T12:55:36.998Z,19.55
2023-03-17T12:58:24.287Z,19.55
2023-03-17T13:00:57.584Z,19.63
2023-03-17T13:03:24.736Z,19.69
2023-03-17T13:05:59.889Z,19.69
2023-03-17T13:08:39.286Z,19.63
2023-03-17T13:11:25.426Z,19.59
2023-03-17T13:14:05.868Z,19.53
2023-03-17T13:16:40.975Z,19.48
2023-03-17T13:19:15.151Z,19.43
2023-03-17T13:21:38.715Z,19.44
2023-03-17T13:24:23.893Z,19.48
2023-03-17T13:26:55.313Z,19.47
2023-03-17T13:29:31.799Z,19.46
2023-03-17T13:32:16.834Z,19.50
2023-03-17T13:35:05.452Z,19.53
2023-03-17T13:37:34.788Z,19.60
2023-03-17T13:40:25.378Z,19.66
2023-03-17T13:42:54.117Z,19.65
2023-03-17T13:45:35.826Z,19.62
2023-03-17T13:48:37.881Z,19.64
2023-03-17T13:51:15.355Z,19.63
2023-03-17T13:53:42.779Z,19.65
2023-03-17T13:56:19.097Z,19.66
2023-03-17T13:59:02.790Z,19.72
2023-03-17T14:01:26.331Z,19.75
2023-03-17T14:03:51.343Z,19.79
2023-03-17T14:06:15.082Z,19.83
2023-03-17T14:08:44.727Z,19.85
2023-03-17T14:11:33.092Z,19.89
2023-03-17T14:14:32.998Z,19.91
2023-03-17T14:17:10.675Z,19.94
2023-03-17T14:19:33.373Z,19.92
2023-03-17T14:22:21.163Z,19.93
2023-03-17T14:24:42.854Z,19.90
2023-03-17T14:27:11.915Z,19.89
2023-03-17T14:29:34.699Z,19.89
2023-03-17T14:32:06.694Z,19.86
2023-03-17T14:34:28.368Z,19.82
2023-03-17T14:36:51.509Z,19.81
2023-03-17T14:39:24.192Z,19.77
2023-03-17T14:41:46.098Z,19.71
2023-03-17T14:44:09.609Z,19.69
2023-03-17T14:46:37.008Z,19.66
2023-03-17T14:49:17.722Z,19.64
2023-03-17T14:51:42.001Z,19.55
2023-03-17T14:54:28.643Z,19.51
2023-03-17T14:57:02.041Z,19.46
2023-03-17T14:59:30.060Z,19.42
2023-03-17T15:01:58.593Z,19.40
2023-03-17T15:04:25.716Z,19.37
2023-03-17T15:06:55.674Z,19.35
2023-03-17T15:09:19.686Z,19.32
2023-03-17T15:11:45.122Z,19.32
2023-03-17T15:14:28.154Z,19.34
2023-03-17T15:16:55.711Z,19.35
2023-03-17T15:19:42.673Z,19.36
2023-03-17T15:22:36.314Z,19.32
2023-03-17T15:25:20.401Z,19.29
2023-03-17T15:27:42.752Z,19.26
2023-03-17T15:30:05.113Z,19.22
2023-03-17T15:32:28.787Z,19.15
2023-03-17T15:34:54.551Z,19.10
2023-03-17T15:37:31.876Z,19.07
2023-03-17T15:39:55.835Z,19.03
2023-03-17T15:42:21.704Z,19.01
2023-03-17T15:44:43.876Z,19.00
2023-03-17T15:47:05.747Z,18.99
2023-03-17T15:49:27.624Z,19.00
2023-03-17T15:51:49.209Z,18.98
2023-03-17T15:54:15.231Z,19.01
2023-03-17T15:56:38.469Z,19.02
2023-03-17T15:59:00.098Z,19.05
2023-03-17T16:01:21.799Z,19.05
2023-03-17T16:03:46.987Z,19.05
2023-03-17T16:06:19.771Z,19.03
2023-03-17T16:08:41.716Z,19.00
2023-03-17T16:11:03.406Z,18.97
2023-03-17T16:13:25.251Z,18.98
2023-03-17T16:15:55.272Z,18.96
2023-03-17T16:18:28.616Z,18.93
2023-03-17T16:20:53.839Z,18.91
2023-03-17T16:23:21.889Z,18.86
2023-03-17T16:25:45.106Z,18.80
2023-03-17T16:28:19.484Z,18.74
2023-03-17T16:30:42.032Z,18.66
2023-03-17T16:33:17.206Z,18.57
2023-03-17T16:35:38.915Z,18.48
2023-03-17T16:38:00.774Z,18.44
2023-03-17T16:40:35.624Z,18.36
2023-03-17T16:42:57.204Z,18.28
2023-03-17T16:45:29.689Z,18.19
2023-03-17T16:47:51.318Z,18.12
2023-03-17T16:50:23.364Z,18.05
2023-03-17T16:52:45.495Z,17.98
2023-03-17T16:55:09.680Z,17.92
2023-03-17T16:57:33.232Z,17.86
2023-03-17T16:59:54.903Z,17.81
2023-03-17T17:02:16.804Z,17.73
2023-03-17T17:04:40.345Z,17.70
2023-03-17T17:07:02.174Z,17.66
2023-03-17T17:09:24.203Z,17.63
2023-03-17T17:11:45.861Z,17.60
2023-03-17T17:14:07.593Z,17.54
2023-03-17T17:16:33.551Z,17.50
2023-03-17T17:18:55.633Z,17.42
2023-03-17T17:21:17.256Z,17.37
2023-03-17T17:23:38.932Z,17.29
2023-03-17T17:26:00.716Z,17.21
2023-03-17T17:28:24.570Z,17.10
2023-03-17T17:30:48.078Z,16.99
2023-03-17T17:33:09.849Z,16.90
2023-03-17T17:35:33.280Z,16.84
2023-03-17T17:37:55.578Z,16.78
2023-03-17T17:40:22.160Z,16.72
2023-03-17T17:42:46.376Z,16.61
2023-03-17T17:45:09.977Z,16.48
2023-03-17T17:47:32.670Z,16.40
2023-03-17T17:49:54.314Z,16.33
2023-03-17T17:52:16.183Z,16.29
2023-03-17T17:54:38.262Z,16.23
2023-03-17T17:57:00.639Z,16.29
2023-03-17T17:59:23.536Z,16.25
2023-03-17T18:01:45.927Z,16.23
2023-03-17T18:04:07.751Z,16.23
2023-03-17T18:06:29.465Z,16.23
2023-03-17T18:08:51.249Z,16.21
2023-03-17T18:11:13.475Z,16.19
2023-03-17T18:13:36.191Z,16.18
2023-03-17T18:15:58.480Z,16.17
2023-03-17T18:18:20.108Z,16.16
2023-03-17T18:20:41.871Z,16.17
2023-03-17T18:23:03.785Z,16.18
2023-03-17T18:25:27.191Z,16.18
2023-03-17T18:27:48.834Z,16.18
2023-03-17T18:30:20.021Z,16.18
2023-03-17T18:32:43.545Z,16.17
2023-03-17T18:35:11.848Z,16.16
2023-03-17T18:37:36.240Z,16.13
2023-03-17T18:40:13.421Z,16.09
2023-03-17T18:42:37.546Z,16.05
2023-03-17T18:44:59.218Z,16.01
2023-03-17T18:47:21.204Z,16.00
2023-03-17T18:49:44.878Z,15.97
2023-03-17T18:52:07.800Z,15.88
2023-03-17T18:54:29.502Z,15.84
2023-03-17T18:56:51.637Z,15.78
2023-03-17T18:59:13.799Z,15.72
2023-03-17T19:01:35.569Z,15.65
2023-03-17T19:03:57.237Z,15.59
2023-03-17T19:06:22.453Z,15.53
2023-03-17T19:08:44.640Z,15.49
2023-03-17T19:11:11.930Z,15.46
2023-03-17T19:13:34.200Z,15.41
2023-03-17T19:15:55.857Z,15.38
2023-03-17T19:18:17.526Z,15.33
2023-03-17T19:20:39.173Z,15.31
2023-03-17T19:23:08.803Z,15.30
2023-03-17T19:25:31.178Z,15.28
2023-03-17T19:27:53.012Z,15.25
2023-03-17T19:30:15.801Z,15.22
2023-03-17T19:32:37.642Z,15.21
2023-03-17T19:34:59.376Z,15.19
2023-03-17T19:37:21.147Z,15.16
2023-03-17T19:39:44.929Z,15.13
2023-03-17T19:42:06.668Z,15.10
2023-03-17T19:44:28.443Z,15.05
2023-03-17T19:46:50.548Z,14.97
2023-03-17T19:49:12.203Z,14.96
2023-03-17T19:51:33.986Z,14.94
2023-03-17T19:53:55.900Z,14.94
2023-03-17T19:56:18.248Z,14.96
2023-03-17T19:58:40.068Z,14.91
2023-03-17T20:01:03.490Z,14.91
2023-03-17T20:03:26.382Z,14.92
2023-03-17T20:05:48.143Z,14.94
2023-03-17T20:08:09.806Z,14.94
2023-03-17T20:10:31.719Z,14.96
2023-03-17T20:12:53.620Z,14.96
2023-03-17T20:15:16.444Z,14.99
2023-03-17T20:17:38.215Z,15.01
2023-03-17T20:20:00.256Z,15.01
2023-03-17T20:22:22.162Z,14.97
2023-03-17T20:24:44.671Z,14.96
2023-03-17T20:27:07.932Z,14.93
2023-03-17T20:29:29.626Z,14.88
2023-03-17T20:31:51.610Z,14.85
2023-03-17T20:34:13.771Z,14.82
2023-03-17T20:36:37.156Z,14.74
2023-03-17T20:38:58.817Z,14.71
2023-03-17T20:41:21.270Z,14.70
2023-03-17T20:43:44.787Z,14.70
2023-03-17T20:46:09.355Z,14.66
2023-03-17T20:48:32.866Z,14.65
2023-03-17T20:50:54.836Z,14.65
2023-03-17T20:53:17.286Z,14.63
2023-03-17T20:55:42.237Z,14.61
2023-03-17T20:58:05.248Z,14.60
2023-03-17T21:00:30.231Z,14.58
2023-03-17T21:02:52.173Z,14.57
2023-03-17T21:05:23.149Z,14.60
2023-03-17T21:07:44.904Z,14.59
2023-03-17T21:10:08.256Z,14.58
2023-03-17T21:12:30.216Z,14.57
2023-03-17T21:14:53.365Z,14.54
2023-03-17T21:17:18.039Z,14.56
2023-03-17T21:19:40.603Z,14.55
2023-03-17T21:22:03.803Z,14.53
2023-03-17T21:24:33.672Z,14.47
2023-03-17T21:26:55.362Z,14.48
2023-03-17T21:29:17.534Z,14.50
2023-03-17T21:31:39.180Z,14.51
2023-03-17T21:34:02.384Z,14.48
2023-03-17T21:36:23.973Z,14.46
2023-03-17T21:38:45.554Z,14.46
2023-03-17T21:41:21.458Z,14.50
2023-03-17T21:43:43.074Z,14.48
2023-03-17T21:46:05.349Z,14.49
2023-03-17T21:48:27.253Z,14.49
2023-03-17T21:50:50.063Z,14.46
2023-03-17T21:53:16.692Z,14.45
2023-03-17T21:55:38.614Z,14.41
2023-03-17T21:58:00.246Z,14.41
2023-03-17T22:00:23.585Z,14.37
2023-03-17T22:02:46.648Z,14.35
2023-03-17T22:05:10.442Z,14.36
2023-03-17T22:07:32.964Z,14.36
2023-03-17T22:09:55.096Z,14.35
2023-03-17T22:12:16.786Z,14.33
2023-03-17T22:14:38.700Z,14.30
2023-03-17T22:17:00.649Z,14.26
2023-03-17T22:19:23.068Z,14.26
2023-03-17T22:21:44.742Z,14.28
2023-03-17T22:24:07.309Z,14.28
2023-03-17T22:26:29.178Z,14.27
2023-03-17T22:28:51.373Z,14.26
2023-03-17T22:31:23.170Z,14.23
2023-03-17T22:33:46.268Z,14.24
2023-03-17T22:36:08.525Z,14.23
2023-03-17T22:38:30.241Z,14.22
2023-03-17T22:41:07.890Z,14.21
2023-03-17T22:43:29.734Z,14.19
2023-03-17T22:45:51.585Z,14.17
2023-03-17T22:48:13.222Z,14.18
2023-03-17T22:50:34.837Z,14.16
2023-03-17T22:52:56.500Z,14.12
2023-03-17T22:55:18.232Z,14.10
2023-03-17T22:57:40.764Z,14.07
2023-03-17T23:00:13.732Z,14.07
2023-03-17T23:02:35.493Z,14.06
2023-03-17T23:04:57.181Z,14.04
2023-03-17T23:07:20.226Z,14.03
2023-03-17T23:09:43.433Z,14.03
2023-03-17T23:12:05.484Z,14.01
2023-03-17T23:14:27.215Z,13.96
2023-03-17T23:16:49.288Z,13.93
2023-03-17T23:19:10.983Z,13.88
2023-03-17T23:21:38.642Z,13.88
2023-03-17T23:24:01.616Z,13.85
2023-03-17T23:26:24.100Z,13.85
2023-03-17T23:28:46.369Z,13.85
2023-03-17T23:31:08.279Z,13.83
2023-03-17T23:33:30.928Z,13.81
2023-03-17T23:35:52.781Z,13.82
2023-03-17T23:38:14.497Z,13.82
2023-03-17T23:40:36.526Z,13.80
2023-03-17T23:42:58.571Z,13.81
2023-03-17T23:45:20.313Z,13.76
2023-03-17T23:47:43.144Z,13.75
2023-03-17T23:50:05.605Z,13.74
2023-03-17T23:52:27.214Z,13.69
2023-03-17T23:54:49.307Z,13.68
2023-03-17T23:57:11.680Z,13.68
2023-03-17T23:59:35.260Z,13.66
